Time;durP1;ratioP1;P1;durP2;ratioP2;P2;SDS_P1;SDS_P2;PMS_P1;PMS_P2;Temp;Humidity;BMP_temperature;BMP_pressure;BME280_temperature;BME280_humidity;BME280_pressure;Samples;Min_cycle;Max_cycle;Signal;HPM_P1;HPM_P2
2022/08/24 00:00:00;;;;;;;;;5.00;4.00;;;;;24.09;62.47;100399.59;146618;563;47014;-83
2022/08/24 00:02:56;;;;;;;;;5.67;4.00;;;;;24.08;61.86;100390.78;146613;581;46016;-81
2022/08/24 00:05:52;;;;;;;;;5.00;4.33;;;;;24.17;62.67;100408.34;146617;610;46011;-87
2022/08/24 00:08:46;;;;;;;;;6.00;5.00;;;;;24.16;62.00;100403.94;146616;614;46014;-91
2022/08/24 00:11:58;;;;;;;;;5.33;5.33;;;;;24.16;61.36;100406.59;146620;619;46011;-84
2022/08/24 00:15:00;;;;;;;;;7.33;6.33;;;;;24.21;60.70;100404.78;146612;577;47014;-82
2022/08/24 00:17:52;;;;;;;;;5.67;5.67;;;;;24.27;61.11;100402.09;146617;607;46014;-83
2022/08/24 00:20:47;;;;;;;;;7.00;5.00;;;;;24.30;61.94;100402.06;146616;581;46035;-84
2022/08/24 00:23:39;;;;;;;;;6.33;6.00;;;;;24.31;60.89;100401.16;146621;597;45020;-78
2022/08/24 00:26:41;;;;;;;;;6.25;5.75;;;;;24.31;60.73;100401.16;146608;631;46016;-77
2022/08/24 00:29:37;;;;;;;;;7.00;6.33;;;;;24.35;60.56;100402.00;146615;570;46918;-84
2022/08/24 00:32:46;;;;;;;;;5.67;5.00;;;;;24.36;60.78;100403.72;146614;630;46012;-86
2022/08/24 00:35:41;;;;;;;;;5.50;5.00;;;;;24.37;60.52;100406.37;146612;606;46010;-83
2022/08/24 00:38:38;;;;;;;;;5.00;5.00;;;;;24.33;60.47;100396.72;146614;573;46016;-84
2022/08/24 00:41:31;;;;;;;;;7.00;5.33;;;;;24.42;60.58;100404.59;146618;583;46010;-77
2022/08/24 00:44:26;;;;;;;;;6.00;6.00;;;;;24.41;60.31;100404.56;146612;619;46014;-80
2022/08/24 00:47:32;;;;;;;;;7.00;6.00;;;;;24.41;59.63;100401.94;146618;605;46029;-87
2022/08/24 00:50:47;;;;;;;;;6.67;6.67;;;;;24.42;59.81;100407.25;146616;590;46012;-90
2022/08/24 00:53:52;;;;;;;;;8.67;7.00;;;;;24.47;59.92;100404.53;146621;578;45020;-81
2022/08/24 00:57:09;;;;;;;;;9.00;6.00;;;;;24.49;60.17;100408.06;146620;627;46013;-82
2022/08/24 01:00:18;;;;;;;;;6.00;5.00;;;;;24.45;60.44;100414.28;146615;606;46020;-82
2022/08/24 01:03:27;;;;;;;;;8.00;6.00;;;;;24.39;60.52;100409.91;146616;647;46016;-78
2022/08/24 01:06:30;;;;;;;;;5.00;5.00;;;;;24.36;60.59;100409.03;146614;597;46917;-81
2022/08/24 01:09:22;;;;;;;;;7.33;5.33;;;;;24.32;60.67;100413.50;146614;599;46016;-79
2022/08/24 01:12:15;;;;;;;;;8.75;8.75;;;;;24.22;61.42;100406.53;146610;575;46021;-80
2022/08/24 01:15:22;;;;;;;;;8.25;7.00;;;;;23.98;61.02;100389.09;146608;600;46012;-76
2022/08/24 01:21:51;;;;;;;;;8.00;8.00;;;;;23.93;61.51;100405.03;146614;623;46915;-76
2022/08/24 01:24:57;;;;;;;;;7.00;7.00;;;;;23.97;61.82;100416.47;146619;580;46021;-76
2022/08/24 01:27:53;;;;;;;;;7.00;6.00;;;;;24.02;61.57;100403.19;146614;578;46016;-83
2022/08/24 01:30:51;;;;;;;;;8.00;8.00;;;;;24.05;61.14;100398.75;146618;569;46020;-85
2022/08/24 01:33:53;;;;;;;;;7.75;7.75;;;;;24.10;61.36;100396.06;146614;629;46014;-82
2022/08/24 01:37:03;;;;;;;;;8.00;8.00;;;;;21.76;60.84;99991.50;146613;575;46020;-80
2022/08/24 01:40:11;;;;;;;;;10.00;9.00;;;;;24.03;61.32;100397.00;146613;566;46017;-79
2022/08/24 01:43:03;;;;;;;;;9.00;9.00;;;;;23.91;62.20;100395.34;146611;566;46010;-79
2022/08/24 01:46:03;;;;;;;;;8.75;7.75;;;;;23.76;62.33;100388.41;146608;618;46014;-80
2022/08/24 01:49:01;;;;;;;;;14.00;11.25;;;;;23.68;62.70;100392.87;146609;702;46021;-80
2022/08/24 01:52:03;;;;;;;;;9.50;9.50;;;;;23.68;62.37;100392.87;146605;607;46016;-78
2022/08/24 01:55:13;;;;;;;;;8.25;6.75;;;;;23.71;62.40;100384.94;146613;661;46020;-84
2022/08/24 01:58:10;;;;;;;;;7.75;7.00;;;;;23.77;62.63;100394.56;146615;576;46012;-79
2022/08/24 02:01:03;;;;;;;;;10.25;8.50;;;;;23.80;62.54;100384.88;146613;611;46020;-75
2022/08/24 02:04:01;;;;;;;;;8.50;8.50;;;;;23.75;62.52;100391.94;146609;570;46013;-78
2022/08/24 02:06:53;;;;;;;;;9.00;7.00;;;;;23.68;63.02;100385.78;146615;599;46020;-80
2022/08/24 02:09:47;;;;;;;;;9.33;9.33;;;;;23.62;63.05;100384.97;146615;596;45034;-74
2022/08/24 02:12:56;;;;;;;;;10.00;8.75;;;;;23.56;63.17;100393.81;146610;597;46010;-79
2022/08/24 02:15:56;;;;;;;;;10.50;8.75;;;;;23.51;63.25;100393.84;146607;582;46917;-82
2022/08/24 02:18:57;;;;;;;;;8.25;8.25;;;;;23.52;63.17;100386.81;146609;608;47020;-81
2022/08/24 02:21:52;;;;;;;;;7.50;7.00;;;;;23.55;62.84;100385.87;146617;574;45016;-82
2022/08/24 02:24:50;;;;;;;;;8.50;8.50;;;;;23.58;62.56;100391.16;146609;566;46020;-81
2022/08/24 02:27:49;;;;;;;;;9.50;7.75;;;;;23.61;63.02;100377.91;146614;571;45021;-83
2022/08/24 02:30:47;;;;;;;;;10.00;7.00;;;;;23.67;62.90;100373.44;146619;599;46022;-80
2022/08/24 02:34:03;;;;;;;;;7.00;6.00;;;;;23.75;62.58;100370.78;146618;587;46013;-81
2022/08/24 02:37:10;;;;;;;;;7.67;7.67;;;;;23.77;61.86;100376.03;146614;571;46020;-74
2022/08/24 02:40:14;;;;;;;;;7.33;7.33;;;;;23.81;62.27;100376.03;146617;585;46012;-77
2022/08/24 02:43:10;;;;;;;;;7.00;7.00;;;;;23.85;62.09;100379.50;146617;628;46020;-85
2022/08/24 02:46:08;;;;;;;;;5.33;4.67;;;;;23.91;61.91;100376.81;146616;595;46013;-86
2022/08/24 02:49:10;;;;;;;;;9.67;7.00;;;;;23.92;61.78;100375.91;146618;579;46010;-87
2022/08/24 02:52:21;;;;;;;;;9.25;8.00;;;;;21.62;61.47;99987.19;146611;589;46016;-86
2022/08/24 02:55:20;;;;;;;;;7.00;6.00;;;;;23.87;62.08;100380.38;146617;619;46020;-79
2022/08/24 02:58:21;;;;;;;;;7.75;6.75;;;;;23.83;62.49;100382.19;146615;604;46012;-81
2022/08/24 03:01:16;;;;;;;;;6.67;6.67;;;;;23.78;62.50;100376.03;146617;619;46020;-84
2022/08/24 03:04:11;;;;;;;;;9.00;8.00;;;;;23.71;62.80;100388.47;146616;651;46012;-80
2022/08/24 03:07:19;;;;;;;;;8.00;7.67;;;;;23.35;62.73;100349.88;146616;630;46020;-81
2022/08/24 03:10:27;;;;;;;;;7.00;6.67;;;;;21.08;62.46;99989.16;146614;564;46016;-78
2022/08/24 03:13:26;;;;;;;;;7.00;6.00;;;;;22.82;63.75;100295.53;146617;673;46010;-83
2022/08/24 03:16:23;;;;;;;;;9.50;8.25;;;;;23.26;64.36;100384.31;146608;688;46015;-80
2022/08/24 03:19:21;;;;;;;;;7.00;6.75;;;;;23.17;64.36;100394.94;146615;590;46010;-80
2022/08/24 03:22:19;;;;;;;;;7.25;6.75;;;;;23.11;65.08;100395.84;146615;714;46016;-82
2022/08/24 03:25:33;;;;;;;;;;;;;;;;;;;;;
2022/08/24 03:28:48;;;;;;;;;9.33;8.33;;;;;22.99;64.15;100402.09;146614;629;46012;-82
2022/08/24 03:31:55;;;;;;;;;10.25;9.00;;;;;20.60;64.46;99990.16;146615;588;46010;-82
2022/08/24 03:34:58;;;;;;;;;;;;;;;;;;;;;
2022/08/24 03:38:00;;;;;;;;;8.67;7.67;;;;;23.02;64.53;100407.38;146618;652;46010;-85
2022/08/24 03:41:03;;;;;;;;;;;;;;;;;;;;;
2022/08/24 03:44:07;;;;;;;;;9.00;8.00;;;;;20.62;64.39;99993.63;146616;634;45020;-76
2022/08/24 03:47:13;;;;;;;;;6.75;6.25;;;;;22.98;65.39;100418.84;146613;646;46017;-78
2022/08/24 03:50:12;;;;;;;;;9.00;9.00;;;;;22.95;65.25;100415.34;146616;566;46020;-76
2022/08/24 03:53:21;;;;;;;;;8.50;8.50;;;;;22.90;65.24;100414.47;146608;674;46016;-78
2022/08/24 03:56:17;;;;;;;;;9.50;8.50;;;;;22.91;65.75;100416.22;146604;593;46021;-78
2022/08/24 03:59:17;;;;;;;;;12.25;10.25;;;;;22.96;65.85;100425.00;146610;642;46012;-77
2022/08/24 04:02:16;;;;;;;;;8.50;8.50;;;;;22.91;66.48;100422.38;146614;689;46021;-77
2022/08/24 04:05:19;;;;;;;;;8.25;8.00;;;;;22.80;65.88;100419.78;146614;660;46016;-78
2022/08/24 04:08:14;;;;;;;;;11.00;9.00;;;;;22.77;65.90;100419.78;146616;578;46010;-79
2022/08/24 04:11:28;;;;;;;;;9.75;8.50;;;;;20.50;65.09;100020.84;146613;629;46016;-81
2022/08/24 04:14:26;;;;;;;;;7.00;7.00;;;;;22.83;65.80;100410.94;146613;606;46020;-83
2022/08/24 04:17:21;;;;;;;;;8.75;8.50;;;;;22.88;65.62;100408.28;146613;607;46014;-80
2022/08/24 04:20:35;;;;;;;;;;;;;;;;;;;;;
2022/08/24 04:23:33;;;;;;;;;9.00;9.00;;;;;23.02;65.33;100406.47;146614;604;46017;-83
2022/08/24 04:26:44;;;;;;;;;9.00;7.50;;;;;23.09;65.41;100405.59;146617;703;46020;-83
2022/08/24 04:29:41;;;;;;;;;9.50;9.00;;;;;23.17;65.20;100411.69;146610;566;46016;-82
2022/08/24 04:33:01;;;;;;;;;;;;;;;;;;;;;
2022/08/24 04:35:57;;;;;;;;;9.00;9.00;;;;;23.25;64.69;100404.59;146612;585;46016;-79
2022/08/24 04:38:49;;;;;;;;;9.67;8.67;;;;;23.36;64.65;100409.81;146614;645;46021;-76
2022/08/24 04:41:51;;;;;;;;;8.67;7.00;;;;;23.51;63.44;100412.38;146613;570;46917;-77
2022/08/24 04:44:54;;;;;;;;;11.75;10.00;;;;;23.62;64.06;100412.31;146613;564;47020;-79
2022/08/24 04:47:50;;;;;;;;;7.33;6.67;;;;;23.74;63.39;100414.03;146618;600;46014;-80
2022/08/24 04:50:44;;;;;;;;;9.00;7.25;;;;;23.80;63.64;100406.03;146611;598;46010;-77
2022/08/24 04:53:43;;;;;;;;;8.00;8.00;;;;;23.93;63.18;100404.16;146612;711;46017;-75
2022/08/24 04:56:35;;;;;;;;;6.50;6.50;;;;;24.06;62.66;100404.94;146617;627;46020;-75
2022/08/24 04:59:33;;;;;;;;;7.33;6.33;;;;;24.17;61.89;100405.69;146613;583;46015;-75
2022/08/24 05:02:40;;;;;;;;;8.00;6.67;;;;;24.30;61.85;100407.34;146615;569;46020;-76
2022/08/24 05:05:36;;;;;;;;;7.00;7.00;;;;;24.43;61.71;100416.94;146614;564;46012;-75
2022/08/24 05:08:42;;;;;;;;;6.33;6.33;;;;;24.53;61.26;100412.44;146618;566;46010;-75
2022/08/24 05:11:50;;;;;;;;;6.33;6.33;;;;;24.62;60.95;100408.81;146618;651;46012;-75
2022/08/24 05:14:48;;;;;;;;;9.00;7.75;;;;;24.70;61.01;100414.88;146614;564;46021;-75
2022/08/24 05:17:42;;;;;;;;;6.75;4.75;;;;;24.84;60.67;100412.06;146616;631;46012;-75
2022/08/24 05:20:46;;;;;;;;;7.33;6.67;;;;;24.93;59.71;100405.78;146617;575;46020;-81
2022/08/24 05:23:51;;;;;;;;;5.33;5.33;;;;;22.73;59.26;100024.22;146617;564;46016;-81
2022/08/24 05:26:46;;;;;;;;;5.00;5.00;;;;;24.99;59.83;100400.41;146614;563;47010;-78
2022/08/24 05:29:49;;;;;;;;;;;;;;;;;;;;;
2022/08/24 05:32:52;;;;;;;;;7.00;5.00;;;;;25.31;60.33;100403.50;146619;574;46020;-81
2022/08/24 05:35:49;;;;;;;;;5.00;5.00;;;;;25.65;59.82;100403.00;146615;564;46012;-72
2022/08/24 05:38:41;;;;;;;;;6.50;6.00;;;;;25.96;58.88;100400.75;146616;621;46021;-73
2022/08/24 05:41:34;;;;;;;;;6.00;6.00;;;;;26.23;58.81;100404.72;146617;617;46012;-71
2022/08/24 05:44:29;;;;;;;;;6.67;6.67;;;;;26.48;56.88;100409.59;146619;576;46021;-71
2022/08/24 05:47:22;;;;;;;;;12.00;10.00;;;;;26.63;56.84;100401.31;146611;564;46034;-77
2022/08/24 05:50:21;;;;;;;;;11.33;7.33;;;;;26.79;56.81;100393.91;146613;630;46020;-71
2022/08/24 05:53:24;;;;;;;;;9.00;8.25;;;;;26.99;55.58;100397.94;146610;685;46014;-76
2022/08/24 05:56:19;;;;;;;;;6.00;6.00;;;;;27.04;55.34;100399.59;146616;596;47014;-75
2022/08/24 05:59:22;;;;;;;;;7.33;5.33;;;;;27.14;55.97;100406.50;146615;579;46017;-74
2022/08/24 06:02:28;;;;;;;;;;;;;;;;;;;;;
2022/08/24 06:05:23;;;;;;;;;5.67;5.67;;;;;27.39;54.91;100389.97;146616;581;45021;-73
2022/08/24 06:08:20;;;;;;;;;8.00;7.00;;;;;27.31;54.61;100370.62;146609;692;46021;-74
2022/08/24 06:11:34;;;;;;;;;6.33;4.67;;;;;27.47;53.98;100395.97;146612;619;46012;-75
2022/08/24 06:14:29;;;;;;;;;7.00;7.00;;;;;27.48;54.30;100387.09;146617;644;47010;-73
2022/08/24 06:17:27;;;;;;;;;6.00;6.00;;;;;27.60;54.62;100388.56;146618;579;45045;-77
2022/08/24 06:20:31;;;;;;;;;8.25;7.00;;;;;27.68;54.22;100386.59;146616;678;46010;-79
2022/08/24 06:23:50;;;;;;;;;;;;;;;;;;;;;
2022/08/24 06:30:23;;;;;;;;;28.75;15.75;;;;;27.47;54.48;100387.13;146608;622;46030;-79
2022/08/24 06:33:27;;;;;;;;;9.50;9.50;;;;;27.51;54.67;100397.66;146612;699;46020;-80
2022/08/24 06:36:22;;;;;;;;;8.00;5.33;;;;;27.59;54.62;100392.16;146616;632;45017;-80
2022/08/24 06:39:17;;;;;;;;;7.00;6.67;;;;;27.63;53.33;100393.81;146618;564;46010;-76
2022/08/24 06:42:11;;;;;;;;;8.00;6.67;;;;;27.59;53.72;100403.66;146614;573;46016;-79
2022/08/24 06:45:06;;;;;;;;;6.00;6.00;;;;;27.50;53.96;100417.19;146617;646;46020;-80
2022/08/24 06:48:04;;;;;;;;;5.67;5.67;;;;;27.52;54.38;100422.50;146612;640;46917;-80
2022/08/24 06:51:01;;;;;;;;;5.00;5.00;;;;;27.66;55.11;100424.84;146619;571;46011;-81
2022/08/24 06:54:01;;;;;;;;;10.00;8.00;;;;;27.83;53.45;100436.87;146612;585;46016;-78
2022/08/24 06:57:07;;;;;;;;;7.33;6.33;;;;;28.03;54.81;100431.03;146617;581;46020;-79
2022/08/24 07:00:19;;;;;;;;;7.67;7.67;;;;;28.43;52.43;100431.81;146612;641;47918;-75
2022/08/24 07:03:12;;;;;;;;;7.00;7.00;;;;;28.66;52.37;100428.50;146614;606;46020;-77
2022/08/24 07:06:27;;;;;;;;;;;;;;;;;;;;;
2022/08/24 07:09:26;;;;;;;;;9.00;6.00;;;;;29.19;49.86;100431.44;146617;595;46020;-75
2022/08/24 07:12:30;;;;;;;;;7.33;7.00;;;;;29.24;49.48;100427.72;146611;595;46017;-78
2022/08/24 07:15:23;;;;;;;;;10.00;7.00;;;;;29.13;49.60;100403.16;146618;592;46020;-81
2022/08/24 07:18:20;;;;;;;;;7.00;7.00;;;;;29.21;50.16;100394.91;146612;648;46016;-78
2022/08/24 07:21:18;;;;;;;;;8.67;8.00;;;;;29.24;49.84;100400.16;146611;616;46021;-78
2022/08/24 07:24:10;;;;;;;;;10.00;8.33;;;;;29.24;49.12;100393.00;146612;605;46016;-78
2022/08/24 07:27:03;;;;;;;;;7.00;7.00;;;;;29.23;49.62;100382.38;146616;622;45049;-78
2022/08/24 07:30:10;;;;;;;;;10.33;9.33;;;;;29.17;51.19;100378.09;146613;571;46012;-79
2022/08/24 07:33:12;;;;;;;;;7.00;7.00;;;;;29.01;50.10;100379.50;146612;624;46010;-79
2022/08/24 07:36:06;;;;;;;;;7.00;7.00;;;;;28.78;50.97;100373.03;146613;654;46017;-79
2022/08/24 07:39:00;;;;;;;;;11.25;11.25;;;;;28.55;51.31;100378.16;146611;583;46020;-79
2022/08/24 07:41:52;;;;;;;;;11.67;10.67;;;;;28.36;52.02;100392.87;146615;547;46014;-79
2022/08/24 07:45:17;;;;;;;;;11.50;11.50;;;;;27.64;53.14;100303.22;146609;563;46020;-81
2022/08/24 07:48:17;;;;;;;;;17.50;16.00;;;;;28.27;52.31;100410.00;146607;607;46016;-77
2022/08/24 07:51:15;;;;;;;;;16.00;16.00;;;;;28.30;52.73;100415.25;146609;577;45020;-79
2022/08/24 07:54:12;;;;;;;;;13.00;13.00;;;;;28.34;53.00;100411.56;146608;689;46016;-78
2022/08/24 07:57:08;;;;;;;;;15.75;15.50;;;;;28.44;52.57;100421.13;146611;587;46010;-80
2022/08/24 08:00:10;;;;;;;;;16.75;16.75;;;;;28.37;53.08;100366.16;146607;586;46012;-78
2022/08/24 08:03:14;;;;;;;;;13.25;13.00;;;;;28.76;52.62;100406.87;146612;604;46011;-77
2022/08/24 08:06:21;;;;;;;;;13.75;12.75;;;;;28.55;51.29;100355.00;146610;716;46030;-75
2022/08/24 08:09:16;;;;;;;;;10.25;10.25;;;;;28.93;51.99;100417.06;146617;642;46010;-78
2022/08/24 08:12:18;;;;;;;;;9.25;8.50;;;;;28.91;52.04;100421.59;146606;573;46017;-80
2022/08/24 08:15:30;;;;;;;;;11.00;11.00;;;;;28.80;51.18;100415.66;146612;607;46020;-76
2022/08/24 08:18:24;;;;;;;;;11.75;11.25;;;;;28.71;52.89;100437.28;146606;564;46017;-74
2022/08/24 08:24:37;;;;;;;;;11.00;10.00;;;;;28.36;53.74;100441.75;146610;621;46012;-74
2022/08/24 08:27:33;;;;;;;;;8.67;6.67;;;;;27.94;55.21;100419.72;146612;687;47010;-77
2022/08/24 08:30:27;;;;;;;;;8.25;8.25;;;;;27.66;56.45;100438.16;146610;636;46012;-78
2022/08/24 08:33:31;;;;;;;;;9.25;8.25;;;;;27.37;57.05;100450.34;146613;602;46020;-79
2022/08/24 08:36:34;;;;;;;;;6.75;6.25;;;;;27.06;57.12;100452.78;146613;707;46012;-77
2022/08/24 08:39:46;;;;;;;;;11.50;8.75;;;;;26.92;57.52;100450.41;146615;586;45020;-76
2022/08/24 08:43:37;;;;;;;;;9.67;8.33;;;;;24.87;57.52;100101.78;146613;569;46016;-77
2022/08/24 08:47:36;;;;;;;;;9.00;9.00;;;;;24.76;57.23;100086.03;146613;664;46020;-78
2022/08/24 08:51:07;;;;;;;;;10.50;10.50;;;;;26.92;57.20;100437.97;146610;708;46012;-78
2022/08/24 08:54:44;;;;;;;;;10.50;9.75;;;;;27.05;57.37;100443.91;146616;669;46010;-77
2022/08/24 08:58:10;;;;;;;;;12.50;10.00;;;;;25.13;57.50;100109.28;146604;615;47016;-77
2022/08/24 09:01:47;;;;;;;;;11.25;10.25;;;;;25.24;56.87;100099.34;146610;570;46010;-77
2022/08/24 09:05:19;;;;;;;;;10.00;10.00;;;;;27.55;56.32;100459.72;146608;574;46014;-78
2022/08/24 09:09:17;;;;;;;;;12.50;10.00;;;;;26.92;56.08;100309.41;146609;595;46020;-74
2022/08/24 09:12:34;;;;;;;;;9.50;9.00;;;;;27.60;54.84;100416.09;146610;570;46017;-76
2022/08/24 09:16:19;;;;;;;;;9.00;9.00;;;;;27.57;54.75;100417.94;146616;573;46020;-77
2022/08/24 09:19:55;;;;;;;;;8.67;7.33;;;;;27.45;54.12;100394.28;146615;608;46017;-74
2022/08/24 09:23:03;;;;;;;;;7.50;6.00;;;;;27.36;54.95;100398.03;146615;627;46020;-75
2022/08/24 09:26:29;;;;;;;;;10.00;8.33;;;;;27.28;56.31;100399.97;146613;691;46016;-74
2022/08/24 09:30:11;;;;;;;;;13.00;8.00;;;;;25.98;56.59;100193.50;146612;641;46020;-76
2022/08/24 09:33:25;;;;;;;;;9.67;8.00;;;;;27.17;57.32;100416.19;146612;578;46016;-75
2022/08/24 09:37:09;;;;;;;;;11.75;10.75;;;;;27.11;56.67;100422.50;146608;632;46020;-76
2022/08/24 09:40:54;;;;;;;;;12.00;10.00;;;;;27.08;56.78;100432.34;146609;684;46016;-74
2022/08/24 09:44:34;;;;;;;;;10.25;9.25;;;;;26.04;56.91;100243.84;146610;624;46010;-76
2022/08/24 09:48:19;;;;;;;;;12.75;11.00;;;;;25.10;58.04;100046.50;146607;584;46033;-78
2022/08/24 09:52:08;;;;;;;;;9.67;9.00;;;;;25.21;57.17;100046.34;146610;585;46020;-76
2022/08/24 09:55:37;;;;;;;;;9.33;9.33;;;;;25.15;57.11;100027.03;146608;640;46015;-77
2022/08/24 09:59:28;;;;;;;;;8.00;8.00;;;;;27.39;58.07;100408.59;146617;564;46020;-76
2022/08/24 10:02:56;;;;;;;;;9.00;8.00;;;;;25.24;58.12;100067.53;146617;608;46013;-77
2022/08/24 10:06:06;;;;;;;;;9.67;9.00;;;;;27.37;58.10;100431.72;146614;576;46010;-79
2022/08/24 10:09:34;;;;;;;;;10.33;10.33;;;;;27.44;57.16;100441.31;146614;652;46014;-77
2022/08/24 10:13:07;;;;;;;;;10.33;9.33;;;;;25.51;57.01;100067.84;146615;687;46023;-77
2022/08/24 10:16:46;;;;;;;;;10.75;9.75;;;;;27.98;55.67;100434.75;146615;577;46012;-75
2022/08/24 10:20:28;;;;;;;;;9.75;9.75;;;;;24.84;55.65;99877.31;146614;596;46020;-75
2022/08/24 10:23:58;;;;;;;;;10.50;9.50;;;;;28.36;54.75;100428.41;146614;566;46035;-76
2022/08/24 10:27:24;;;;;;;;;9.33;9.33;;;;;26.51;54.83;100086.94;146618;575;46011;-76
2022/08/24 10:31:04;;;;;;;;;11.33;10.67;;;;;28.61;54.34;100434.00;146609;704;48012;-77
2022/08/24 10:34:54;;;;;;;;;;;;;;;;;;;;;
2022/08/24 10:46:12;;;;;;;;;10.00;10.00;;;;;29.06;53.55;100419.41;146617;676;46012;-75
2022/08/24 10:49:54;;;;;;;;;9.00;8.25;;;;;29.03;53.61;100400.78;146618;606;46010;-77
2022/08/24 10:53:27;;;;;;;;;10.33;9.67;;;;;26.93;54.33;100023.81;146614;603;46014;-73
2022/08/24 10:56:53;;;;;;;;;9.67;9.67;;;;;28.99;53.65;100375.97;146618;574;46010;-76
2022/08/24 11:00:19;;;;;;;;;10.25;9.25;;;;;29.02;54.12;100372.37;146613;581;46034;-77
2022/08/24 11:03:28;;;;;;;;;10.50;9.00;;;;;29.10;54.21;100370.34;146608;565;47021;-76
2022/08/24 11:06:29;;;;;;;;;10.75;10.75;;;;;29.20;54.50;100367.31;146611;587;46012;-77
2022/08/24 11:10:00;;;;;;;;;9.67;9.67;;;;;27.43;53.66;100042.84;146612;614;47010;-76
2022/08/24 11:12:54;;;;;;;;;10.50;9.75;;;;;29.40;52.92;100371.16;146607;683;46012;-76
2022/08/24 11:16:12;;;;;;;;;12.75;11.75;;;;;29.54;53.74;100374.28;146609;568;46010;-75
2022/08/24 11:19:14;;;;;;;;;12.00;10.50;;;;;29.69;52.31;100368.44;146603;570;46016;-74
2022/08/24 11:22:50;;;;;;;;;13.75;12.75;;;;;29.85;52.05;100366.13;146608;678;46010;-73
2022/08/24 11:26:16;;;;;;;;;12.00;11.00;;;;;30.06;51.79;100367.19;146608;626;46018;-74
2022/08/24 11:29:12;;;;;;;;;11.25;10.50;;;;;30.36;50.98;100367.06;146609;569;46020;-76
2022/08/24 11:32:10;;;;;;;;;15.75;13.75;;;;;30.62;50.05;100366.09;146606;580;46016;-73
2022/08/24 11:35:40;;;;;;;;;15.00;11.25;;;;;30.82;50.21;100376.97;146607;685;46020;-72
2022/08/24 11:38:40;;;;;;;;;13.25;13.00;;;;;31.04;48.76;100377.00;146609;590;46015;-74
2022/08/24 11:41:42;;;;;;;;;15.50;13.75;;;;;31.19;48.38;100383.56;146610;645;46010;-74
2022/08/24 11:45:06;;;;;;;;;14.00;12.25;;;;;31.34;48.99;100387.50;146608;704;46915;-74
2022/08/24 11:48:48;;;;;;;;;11.75;11.25;;;;;31.22;48.11;100391.47;146606;721;46011;-75
2022/08/24 11:52:17;;;;;;;;;11.50;11.00;;;;;31.07;48.30;100400.13;146610;564;45016;-75
2022/08/24 11:55:50;;;;;;;;;11.25;10.50;;;;;29.07;49.09;100064.34;146609;718;46021;-72
2022/08/24 11:59:14;;;;;;;;;11.50;10.25;;;;;29.14;49.67;100067.66;146610;622;45913;-72
2022/08/24 12:02:44;;;;;;;;;12.50;10.00;;;;;31.15;48.61;100415.88;146610;578;46011;-73
2022/08/24 12:06:38;;;;;;;;;10.25;10.00;;;;;29.19;48.61;100090.59;146608;590;46016;-73
2022/08/24 12:10:10;;;;;;;;;10.50;10.50;;;;;30.90;49.71;100405.22;146608;564;46014;-72
2022/08/24 12:13:48;;;;;;;;;11.00;10.00;;;;;28.67;49.78;100025.66;146605;662;46014;-73
2022/08/24 12:17:32;;;;;;;;;11.25;10.25;;;;;30.93;48.49;100384.56;146610;723;46015;-72
2022/08/24 12:20:56;;;;;;;;;11.75;11.00;;;;;28.94;48.51;100029.16;146607;690;46012;-73
2022/08/24 12:24:03;;;;;;;;;12.00;11.50;;;;;30.96;48.49;100379.09;146605;645;46020;-73
2022/08/24 12:27:19;;;;;;;;;13.75;12.50;;;;;28.76;48.79;99973.78;146609;606;46012;-73
2022/08/24 12:30:41;;;;;;;;;9.50;9.50;;;;;29.05;48.31;100011.91;146608;577;48014;-73
2022/08/24 12:33:41;;;;;;;;;11.75;10.50;;;;;31.16;47.50;100348.00;146609;616;47014;-72
2022/08/24 12:37:02;;;;;;;;;8.75;8.00;;;;;31.21;47.33;100349.53;146609;701;46010;-75
2022/08/24 12:40:28;;;;;;;;;10.25;10.00;;;;;29.15;48.43;100005.31;146608;622;46016;-73
2022/08/24 12:43:49;;;;;;;;;10.00;10.00;;;;;30.01;48.59;100154.41;146610;660;46014;-71
2022/08/24 12:46:58;;;;;;;;;9.00;9.00;;;;;30.90;48.29;100327.59;146605;711;46915;-73
2022/08/24 12:50:10;;;;;;;;;10.25;9.00;;;;;30.77;49.13;100328.06;146609;706;47010;-70
2022/08/24 12:53:35;;;;;;;;;10.00;9.50;;;;;30.68;48.96;100324.84;146606;583;47012;-72
2022/08/24 12:57:21;;;;;;;;;13.50;12.75;;;;;28.60;49.54;99985.91;146609;624;46010;-72
2022/08/24 13:00:50;;;;;;;;;12.75;12.25;;;;;30.64;49.24;100332.13;146616;582;46012;-71
2022/08/24 13:03:52;;;;;;;;;15.25;13.50;;;;;30.62;48.51;100325.94;146617;662;47020;-70
2022/08/24 13:07:03;;;;;;;;;12.50;11.00;;;;;30.60;48.96;100322.47;146613;590;46012;-72
2022/08/24 13:10:44;;;;;;;;;13.00;12.50;;;;;30.59;49.54;100315.34;146614;660;46021;-73
2022/08/24 13:13:51;;;;;;;;;12.75;12.75;;;;;30.56;47.90;100303.00;146614;709;46012;-72
2022/08/24 13:17:14;;;;;;;;;11.00;11.00;;;;;28.57;48.33;99970.91;146616;622;46020;-73
2022/08/24 13:20:25;;;;;;;;;11.75;11.00;;;;;30.64;47.84;100301.81;146615;588;46014;-72
2022/08/24 13:23:49;;;;;;;;;;;;;;;;;;;;;
2022/08/24 13:26:42;;;;;;;;;11.75;10.50;;;;;30.69;46.70;100273.09;146610;686;46012;-69
2022/08/24 13:29:40;;;;;;;;;12.00;12.00;;;;;30.66;47.69;100262.50;146615;631;45020;-68
2022/08/24 13:32:53;;;;;;;;;12.75;11.25;;;;;28.67;48.71;99915.41;146614;744;46012;-69
2022/08/24 13:36:33;;;;;;;;;13.00;11.50;;;;;28.77;48.30;99925.69;146617;577;46020;-69
2022/08/24 13:40:01;;;;;;;;;15.50;12.00;;;;;30.76;48.22;100259.38;146611;650;46016;-70
2022/08/24 13:43:26;;;;;;;;;12.50;11.25;;;;;30.83;47.91;100249.34;146611;617;47010;-70
2022/08/24 13:46:55;;;;;;;;;12.25;11.25;;;;;30.91;47.43;100235.66;146612;588;46018;-70
2022/08/24 13:51:09;;;;;;;;;10.50;10.00;;;;;29.05;47.82;99898.00;146617;616;46014;-69
2022/08/24 13:54:29;;;;;;;;;14.50;12.25;;;;;29.14;45.74;99894.13;146616;678;45017;-67
2022/08/24 13:58:11;;;;;;;;;14.75;13.50;;;;;29.15;47.35;99902.06;146616;618;46010;-64
2022/08/24 14:01:31;;;;;;;;;13.25;12.25;;;;;31.21;47.71;100234.38;146610;687;46013;-65
2022/08/24 14:05:07;;;;;;;;;15.25;12.50;;;;;28.80;47.19;99843.81;146609;695;46010;-66
2022/08/24 14:08:43;;;;;;;;;;;;;;;;;;;;;
2022/08/24 14:12:10;;;;;;;;;11.25;11.25;;;;;30.54;47.82;100239.75;146608;612;46020;-66
2022/08/24 14:15:29;;;;;;;;;14.50;14.25;;;;;30.35;48.83;100224.41;146608;634;46014;-66
2022/08/24 14:19:16;;;;;;;;;12.25;11.50;;;;;28.66;50.13;99956.34;146609;716;46020;-66
2022/08/24 14:23:13;;;;;;;;;12.50;11.25;;;;;28.05;48.92;99890.88;146609;720;46016;-66
2022/08/24 14:27:01;;;;;;;;;12.25;12.25;;;;;29.84;49.85;100232.53;146611;566;46010;-67
2022/08/24 14:30:16;;;;;;;;;11.50;11.00;;;;;29.69;50.53;100245.53;146606;627;46016;-67
2022/08/24 14:33:37;;;;;;;;;11.75;11.50;;;;;29.52;50.11;100247.00;146609;569;46015;-67
2022/08/24 14:37:17;;;;;;;;;11.00;11.00;;;;;27.36;50.42;99893.06;146607;571;46016;-64
2022/08/24 14:40:39;;;;;;;;;14.75;14.50;;;;;29.51;50.41;100262.19;146609;567;46020;-65
2022/08/24 14:44:20;;;;;;;;;11.33;10.00;;;;;27.63;48.67;99941.03;146606;597;46018;-65
2022/08/24 14:48:02;;;;;;;;;12.25;10.25;;;;;29.60;48.57;100269.88;146613;592;46010;-65
2022/08/24 14:51:53;;;;;;;;;10.33;10.00;;;;;27.63;48.74;99931.28;146609;624;47915;-65
2022/08/24 14:55:24;;;;;;;;;9.00;8.00;;;;;29.62;44.94;100277.84;146613;587;46014;-65
2022/08/24 14:59:14;;;;;;;;;9.67;9.67;;;;;29.52;46.76;100266.59;146608;698;47016;-65
2022/08/24 15:03:01;;;;;;;;;8.00;8.00;;;;;29.36;48.69;100262.69;146610;601;46020;-65
2022/08/24 15:06:52;;;;;;;;;8.75;8.25;;;;;27.01;48.56;99910.09;146607;642;46012;-64
2022/08/24 15:09:53;;;;;;;;;8.33;8.33;;;;;29.21;46.93;100280.09;146616;623;46010;-66
2022/08/24 15:13:07;;;;;;;;;12.75;12.00;;;;;29.26;48.00;100283.50;146608;563;46012;-67
2022/08/24 15:16:20;;;;;;;;;11.75;10.25;;;;;29.28;48.84;100288.75;146608;661;46021;-69
2022/08/24 15:19:33;;;;;;;;;13.00;12.67;;;;;29.23;49.92;100291.59;146609;579;46012;-66